Terminal Aerodrome Forecast
Issued by NWS Denver/Boulder, CO

Home | Current Version | Previous Version | Text Only | Print | Product List | Glossary On
Versions: 1 2 3 4 5 6 7 8 9 10 11 12 13 14 15 16 17 18 19 20 21 22 23 24 25 26 27 28 29 30 31 32 33 34 35 36 37 38 39 40 41 42 43 44 45 46 47 48 49 50
202
FTUS45 KBOU 220254 AAA
TAFDEN
TAF AMD
KDEN 220254Z 2203/2306 09010KT P6SM FEW100 SCT250
     FM220600 15005KT P6SM FEW100 SCT250
     FM221100 01005KT P6SM SCT002 BKN006
      TEMPO 2211/2215 1/2SM FG BKN002
     FM221700 13011KT P6SM FEW020 SCT120
     FM222200 16013G21KT P6SM FEW090 SCT150
     FM230300 20011KT P6SM FEW090 SCT150 BKN220=

USA.gov is the U.S. government's official web portal to all federal, state and local government web resources and services.